ENKB/KSU METAR and TAF weather

Enter ICAO airport designator
Station Type Date Time Source
ENKB METAR 2019/06/26 21:50 UTC NOAA

ENKB 262150Z AUTO 25010KT 9999 FEW010/// BKN028/// OVC042/// 10/08 Q1023 RMK WIND 745FT 26012KT


Station Type Date Time Source
ENKB Decoded METAR 2019/06/26 21:50 UTC NOAA

Kristiansund / Kvernberget, Norway (ENKB) 63-07N 007-50E 62M
Jun 26, 2019 - 05:50 PM EDT / 2019.06.26 2150 UTC
Wind: from the WSW (250 degrees) at 12 MPH (10 KT):0
Visibility: greater than 7 mile(s):0
Sky conditions: overcast
Temperature: 50 F (10 C)
Dew Point: 46 F (8 C)
Relative Humidity: 87%
Pressure (altimeter): 30.21 in. Hg (1023 hPa)
ob: ENKB 262150Z AUTO 25010KT 9999 FEW010/// BKN028/// OVC042/// 10/08 Q1023 RMK WIND 745FT 26012KT
cycle: 22

Station Type Date Time Source
ENKB TAF 2010/02/05 07:50 UTC NOAA

METAR ENKB 050750Z 15011KT 110V200 9999 SCT055 BKN070 03/M05 Q1007

Example: see airport list